UAAH/BXH METAR and TAF weather

Enter ICAO airport designator
Station Type Date Time Source
UAAH METAR 2021/06/24 05:00 UTC NOAA

UAAH 240500Z 03005MPS 340V070 CAVOK 17/05 Q1010 R05/0///60 NOSIG RMK QFE720/0960


Station Type Date Time Source
UAAH Decoded METAR 2021/06/24 05:00 UTC NOAA

Station name not available
Jun 24, 2021 - 01:00 AM EDT / 2021.06.24 0500 UTC
Wind: from the NNE (030 degrees) at 11 MPH (10 KT) (direction variable):0
Visibility: greater than 7 mile(s):0
Temperature: 62 F (17 C)
Dew Point: 41 F (5 C)
Relative Humidity: 45%
Pressure (altimeter): 29.83 in. Hg (1010 hPa)
ob: UAAH 240500Z 03005MPS 340V070 CAVOK 17/05 Q1010 R05/0///60 NOSIG RMK QFE720/0960
cycle: 5

Station Type Date Time Source
UAAH TAF 2021/05/11 09:06 UTC NOAA

TAF
AMD TAF
AMD UAAH 111100Z 1109/1218 CNL

Example: see airport list